createdAt,value
2019-02-26T00:00:50.146Z,80.90
2019-02-26T00:03:57.885Z,78.90
2019-02-26T00:07:04.773Z,78.56
2019-02-26T00:10:11.977Z,78.48
2019-02-26T00:13:24.752Z,82.70
2019-02-26T00:16:35.218Z,82.09
2019-02-26T00:19:39.500Z,82.88
2019-02-26T00:22:46.423Z,82.63
2019-02-26T00:25:53.297Z,82.78
2019-02-26T00:29:01.918Z,83.69
2019-02-26T00:32:10.072Z,83.95
2019-02-26T00:35:19.072Z,85.83
2019-02-26T00:38:26.113Z,83.91
2019-02-26T00:41:33.568Z,83.28
2019-02-26T00:44:41.617Z,84.19
2019-02-26T00:47:48.577Z,84.28
2019-02-26T00:50:56.602Z,85.19
2019-02-26T00:54:05.504Z,83.50
2019-02-26T00:57:13.969Z,86.85
2019-02-26T01:00:21.436Z,84.84
2019-02-26T01:03:28.345Z,87.62
2019-02-26T01:06:35.396Z,86.00
2019-02-26T01:09:42.327Z,84.70
2019-02-26T01:12:49.249Z,85.62
2019-02-26T01:15:56.178Z,86.98
2019-02-26T01:19:03.009Z,87.28
2019-02-26T01:22:11.860Z,85.88
2019-02-26T01:25:22.885Z,86.95
2019-02-26T01:28:31.993Z,85.59
2019-02-26T01:31:38.955Z,87.27
2019-02-26T01:34:49.380Z,85.72
2019-02-26T01:38:00.288Z,85.86
2019-02-26T01:41:11.351Z,85.57
2019-02-26T01:44:18.414Z,87.49
2019-02-26T01:47:26.297Z,89.05
2019-02-26T01:50:35.660Z,87.37
2019-02-26T01:53:46.406Z,88.33
2019-02-26T01:56:53.402Z,87.80
2019-02-26T02:00:00.920Z,86.37
2019-02-26T02:03:08.004Z,85.49
2019-02-26T02:06:17.703Z,88.93
2019-02-26T02:09:25.079Z,88.38
2019-02-26T02:12:34.268Z,86.38
2019-02-26T02:15:42.238Z,88.72
2019-02-26T02:18:51.373Z,86.26
2019-02-26T02:21:58.536Z,88.15
2019-02-26T02:25:05.681Z,89.93
2019-02-26T02:28:19.355Z,87.94
2019-02-26T02:31:29.533Z,88.59
2019-02-26T02:34:36.674Z,87.97
2019-02-26T02:37:42.678Z,89.94
2019-02-26T02:40:52.550Z,89.86
2019-02-26T02:43:59.277Z,88.37
2019-02-26T02:47:08.807Z,87.29
2019-02-26T02:50:18.207Z,86.38
2019-02-26T02:53:24.520Z,90.81
2019-02-26T02:56:33.524Z,91.71
2019-02-26T02:59:42.249Z,89.40
2019-02-26T03:02:52.289Z,88.83
2019-02-26T03:05:58.354Z,87.83
2019-02-26T03:09:17.763Z,87.92
2019-02-26T03:12:24.801Z,87.71
2019-02-26T03:15:33.762Z,89.32
2019-02-26T03:18:40.334Z,90.41
2019-02-26T03:21:49.510Z,88.29
2019-02-26T03:24:57.495Z,91.46
2019-02-26T03:28:04.725Z,89.46
2019-02-26T03:31:11.781Z,91.61
2019-02-26T03:34:25.414Z,92.28
2019-02-26T03:37:31.411Z,90.34
2019-02-26T03:40:38.841Z,90.22
2019-02-26T03:43:45.849Z,89.40
2019-02-26T03:46:52.707Z,89.15
2019-02-26T03:49:59.519Z,88.85
2019-02-26T03:53:09.053Z,89.79
2019-02-26T03:56:17.551Z,88.41
2019-02-26T03:59:24.179Z,90.53
2019-02-26T04:02:31.436Z,90.86
2019-02-26T04:05:38.312Z,92.50
2019-02-26T04:08:48.066Z,90.96
2019-02-26T04:11:55.422Z,88.74
2019-02-26T04:15:02.356Z,88.72
2019-02-26T04:18:09.317Z,89.91
2019-02-26T04:21:18.413Z,89.76
2019-02-26T04:24:26.007Z,89.19
2019-02-26T04:28:27.370Z,90.64
2019-02-26T04:32:49.490Z,90.45
2019-02-26T04:36:28.741Z,92.22
2019-02-26T04:40:17.452Z,90.17
2019-02-26T04:44:29.241Z,89.94
2019-02-26T04:47:36.376Z,87.75
2019-02-26T04:50:44.804Z,89.61
2019-02-26T04:53:53.694Z,89.93
2019-02-26T04:57:00.467Z,89.90
2019-02-26T05:00:10.400Z,92.82
2019-02-26T05:03:18.140Z,91.26
2019-02-26T05:06:25.578Z,89.86
2019-02-26T05:09:35.102Z,90.43
2019-02-26T05:12:41.188Z,89.50
2019-02-26T05:15:48.110Z,92.19
2019-02-26T05:18:58.508Z,91.89
2019-02-26T05:22:07.052Z,90.15
2019-02-26T05:25:17.647Z,90.15
2019-02-26T05:28:23.950Z,89.92
2019-02-26T05:31:33.189Z,90.00
2019-02-26T05:34:39.837Z,91.51
2019-02-26T05:37:48.016Z,90.94
2019-02-26T05:40:55.791Z,89.87
2019-02-26T05:44:06.650Z,89.25
2019-02-26T05:47:13.104Z,90.11
2019-02-26T05:50:20.246Z,91.35
2019-02-26T05:53:27.090Z,90.77
2019-02-26T05:56:34.638Z,89.79
2019-02-26T05:59:42.419Z,89.91
2019-02-26T06:02:51.029Z,93.18
2019-02-26T06:06:00.485Z,91.23
2019-02-26T06:09:08.201Z,91.32
2019-02-26T06:12:15.188Z,91.80
2019-02-26T06:15:22.975Z,93.25
2019-02-26T06:18:30.863Z,92.11
2019-02-26T06:21:41.777Z,91.37
2019-02-26T06:24:46.251Z,92.10
2019-02-26T06:27:53.018Z,93.36
2019-02-26T06:31:00.057Z,91.15
2019-02-26T06:34:08.822Z,90.19
2019-02-26T06:37:25.020Z,94.33
2019-02-26T06:40:34.514Z,93.74
2019-02-26T06:43:42.763Z,91.89
2019-02-26T06:46:49.083Z,89.18
2019-02-26T06:49:55.938Z,92.39
2019-02-26T06:53:04.607Z,93.10
2019-02-26T06:56:11.338Z,92.18
2019-02-26T06:59:19.622Z,91.06
2019-02-26T07:02:28.950Z,90.27
2019-02-26T07:05:46.480Z,91.56
2019-02-26T07:08:53.590Z,90.60
2019-02-26T07:12:00.603Z,92.88
2019-02-26T07:15:12.150Z,93.12
2019-02-26T07:18:20.169Z,89.72
2019-02-26T07:21:27.060Z,90.17
2019-02-26T07:24:33.870Z,91.42
2019-02-26T07:27:40.811Z,90.58
2019-02-26T07:30:47.696Z,89.59
2019-02-26T07:33:56.399Z,88.38
2019-02-26T07:37:04.255Z,89.09
2019-02-26T07:40:15.893Z,88.71
2019-02-26T07:43:23.793Z,88.67
2019-02-26T07:46:30.652Z,89.71
2019-02-26T07:49:37.464Z,89.12
2019-02-26T07:52:44.359Z,88.03
2019-02-26T07:55:51.313Z,87.87
2019-02-26T07:59:01.276Z,90.52
2019-02-26T08:02:08.634Z,88.68
2019-02-26T08:05:17.027Z,87.62
2019-02-26T08:08:24.321Z,84.99
2019-02-26T08:11:31.515Z,85.26
2019-02-26T08:14:40.208Z,85.33
2019-02-26T08:17:50.201Z,84.91
2019-02-26T08:20:57.922Z,83.87
2019-02-26T08:24:04.192Z,82.82
2019-02-26T08:27:13.397Z,82.88
2019-02-26T08:30:23.322Z,81.90
2019-02-26T08:33:28.807Z,81.77
2019-02-26T08:36:35.823Z,80.44
2019-02-26T08:39:42.684Z,80.79
2019-02-26T08:42:49.509Z,80.74
2019-02-26T08:45:56.373Z,78.88
2019-02-26T08:49:08.464Z,78.08
2019-02-26T08:52:12.597Z,76.42
2019-02-26T08:55:24.440Z,76.23
2019-02-26T08:58:30.323Z,76.02
2019-02-26T09:01:37.136Z,76.17
2019-02-26T09:04:45.083Z,76.34
2019-02-26T09:07:52.677Z,75.17
2019-02-26T09:11:00.948Z,75.05
2019-02-26T09:14:09.782Z,73.31
2019-02-26T09:17:20.945Z,73.85
2019-02-26T09:20:25.988Z,70.88
2019-02-26T09:23:32.931Z,69.93
2019-02-26T09:26:39.885Z,70.56
2019-02-26T09:29:50.936Z,71.61
2019-02-26T09:32:58.439Z,71.45
2019-02-26T09:36:05.005Z,68.75
2019-02-26T09:39:15.364Z,69.49
2019-02-26T09:42:23.368Z,69.48
2019-02-26T09:45:31.553Z,65.72
2019-02-26T09:48:40.494Z,67.52
2019-02-26T09:51:46.944Z,63.87
2019-02-26T09:54:55.204Z,63.45
2019-02-26T09:58:02.637Z,62.45
2019-02-26T10:01:11.023Z,62.44
2019-02-26T10:04:22.085Z,61.31
2019-02-26T10:07:31.228Z,61.25
2019-02-26T10:10:39.826Z,61.05
2019-02-26T10:13:48.910Z,60.24
2019-02-26T10:16:57.004Z,56.56
2019-02-26T10:20:08.603Z,52.82
2019-02-26T10:23:21.787Z,52.33
2019-02-26T10:26:30.759Z,49.80
2019-02-26T10:29:42.801Z,50.04
2019-02-26T10:32:49.417Z,51.23
2019-02-26T10:35:56.475Z,48.98
2019-02-26T10:39:04.224Z,47.83
2019-02-26T10:42:12.716Z,47.53
2019-02-26T10:45:22.588Z,47.04
2019-02-26T10:48:29.610Z,47.06
2019-02-26T10:51:36.657Z,47.20
2019-02-26T10:54:44.726Z,49.04
2019-02-26T10:57:52.514Z,45.84
2019-02-26T11:01:05.156Z,45.14
2019-02-26T11:04:10.634Z,45.74
2019-02-26T11:07:20.730Z,45.25
2019-02-26T11:10:27.629Z,45.91
2019-02-26T11:13:34.530Z,44.13
2019-02-26T11:16:41.344Z,44.53
2019-02-26T11:19:48.655Z,44.14
2019-02-26T11:22:55.534Z,44.56
2019-02-26T11:26:04.066Z,44.04
2019-02-26T11:29:10.999Z,45.44
2019-02-26T11:32:18.210Z,46.68
2019-02-26T11:35:27.124Z,44.47
2019-02-26T11:38:35.314Z,45.65
2019-02-26T11:41:42.765Z,44.72
2019-02-26T11:44:49.583Z,45.39
2019-02-26T11:47:57.983Z,43.58
2019-02-26T11:51:05.210Z,44.37
2019-02-26T11:54:14.383Z,43.16
2019-02-26T11:57:21.066Z,42.13
2019-02-26T12:00:39.927Z,42.22
2019-02-26T12:03:46.391Z,39.42
2019-02-26T12:06:53.252Z,39.15
2019-02-26T12:10:04.654Z,39.69
2019-02-26T12:13:10.490Z,40.46
2019-02-26T12:16:17.917Z,40.33
2019-02-26T12:19:25.643Z,40.17
2019-02-26T12:22:34.528Z,39.75
2019-02-26T12:25:41.417Z,41.31
2019-02-26T12:28:48.220Z,39.51
2019-02-26T12:31:55.638Z,40.11
2019-02-26T12:35:05.773Z,39.27
2019-02-26T12:38:18.262Z,39.37
2019-02-26T12:41:21.072Z,39.29
2019-02-26T12:44:28.970Z,39.20
2019-02-26T12:47:36.556Z,35.91
2019-02-26T12:50:43.454Z,38.11
2019-02-26T12:53:50.469Z,37.65
2019-02-26T12:56:57.770Z,38.45
2019-02-26T13:00:10.795Z,37.95
2019-02-26T13:03:19.863Z,38.21
2019-02-26T13:06:27.309Z,36.83
2019-02-26T13:09:34.379Z,37.59
2019-02-26T13:12:41.359Z,38.92
2019-02-26T13:15:49.861Z,38.22
2019-02-26T13:19:00.884Z,38.00
2019-02-26T13:22:08.741Z,40.59
2019-02-26T13:25:17.801Z,42.25
2019-02-26T13:28:29.557Z,41.66
2019-02-26T13:31:41.709Z,41.68
2019-02-26T13:34:43.596Z,41.36
2019-02-26T13:37:51.346Z,41.09
2019-02-26T13:41:19.944Z,43.75
2019-02-26T13:44:06.929Z,42.14
2019-02-26T13:47:16.854Z,41.22
2019-02-26T13:50:28.361Z,42.51
2019-02-26T13:53:35.283Z,41.27
2019-02-26T13:56:42.555Z,40.06
2019-02-26T13:59:49.373Z,41.96
2019-02-26T14:02:56.203Z,41.76
2019-02-26T14:06:03.170Z,41.41
2019-02-26T14:09:10.086Z,39.77
2019-02-26T14:12:17.653Z,38.89
2019-02-26T14:15:25.321Z,39.08
2019-02-26T14:18:32.574Z,37.94
2019-02-26T14:21:41.555Z,38.08
2019-02-26T14:24:48.179Z,37.07
2019-02-26T14:27:56.619Z,39.97
2019-02-26T14:31:03.484Z,38.75
2019-02-26T14:34:11.059Z,39.89
2019-02-26T14:37:21.191Z,38.57
2019-02-26T14:40:28.104Z,40.14
2019-02-26T14:43:34.885Z,40.17
2019-02-26T14:46:41.799Z,39.30
2019-02-26T14:49:48.692Z,38.77
2019-02-26T14:52:55.795Z,41.30
2019-02-26T14:56:03.012Z,40.43
2019-02-26T14:59:09.822Z,40.79
2019-02-26T15:02:17.721Z,40.34
2019-02-26T15:05:25.331Z,37.95
2019-02-26T15:08:32.155Z,39.62
2019-02-26T15:11:39.171Z,39.03
2019-02-26T15:14:48.749Z,39.75
2019-02-26T15:17:54.679Z,39.50
2019-02-26T15:21:01.638Z,40.13
2019-02-26T15:24:08.529Z,39.59
2019-02-26T15:27:18.432Z,40.84
2019-02-26T15:30:26.148Z,39.19
2019-02-26T15:33:33.021Z,37.93
2019-02-26T15:36:41.099Z,38.65
2019-02-26T15:39:47.985Z,40.54
2019-02-26T15:42:56.352Z,40.63
2019-02-26T15:46:03.355Z,40.93
2019-02-26T15:49:12.161Z,42.04
2019-02-26T15:52:22.382Z,44.59
2019-02-26T15:55:29.447Z,44.49
2019-02-26T15:58:36.641Z,43.83
2019-02-26T16:01:43.478Z,46.44
2019-02-26T16:04:50.285Z,46.48
2019-02-26T16:07:57.216Z,47.07
2019-02-26T16:11:04.032Z,46.35
2019-02-26T16:14:11.173Z,47.78
2019-02-26T16:17:18.322Z,49.18
2019-02-26T16:20:25.167Z,49.80
2019-02-26T16:23:32.715Z,51.29
2019-02-26T16:26:40.976Z,50.74
2019-02-26T16:29:49.758Z,50.65
2019-02-26T16:32:57.923Z,51.75
2019-02-26T16:36:04.778Z,51.25
2019-02-26T16:39:12.291Z,52.27
2019-02-26T16:42:19.746Z,54.07
2019-02-26T16:45:26.717Z,58.20
2019-02-26T16:48:33.773Z,58.06
2019-02-26T16:51:40.753Z,57.56
2019-02-26T16:54:47.597Z,55.80
2019-02-26T16:57:56.931Z,55.04
2019-02-26T17:01:05.881Z,54.10
2019-02-26T17:04:13.072Z,55.68
2019-02-26T17:07:21.317Z,55.41
2019-02-26T17:10:30.378Z,57.33
2019-02-26T17:13:37.862Z,59.12
2019-02-26T17:16:45.577Z,59.30
2019-02-26T17:19:54.240Z,58.65
2019-02-26T17:23:02.739Z,59.73
2019-02-26T17:26:09.761Z,60.91
2019-02-26T17:29:16.874Z,62.28
2019-02-26T17:32:24.453Z,61.57
2019-02-26T17:35:31.635Z,63.19
2019-02-26T17:38:38.432Z,62.60
2019-02-26T17:41:45.338Z,63.21
2019-02-26T17:44:52.233Z,65.15
2019-02-26T17:47:59.113Z,62.78
2019-02-26T17:51:06.003Z,63.78
2019-02-26T17:54:12.872Z,64.74
2019-02-26T17:57:19.711Z,65.41
2019-02-26T18:00:27.259Z,64.05
2019-02-26T18:03:35.243Z,65.37
2019-02-26T18:06:42.258Z,65.85
2019-02-26T18:09:50.643Z,65.51
2019-02-26T18:12:57.793Z,66.29
2019-02-26T18:16:09.062Z,66.13
2019-02-26T18:19:13.470Z,64.82
2019-02-26T18:22:21.761Z,66.54
2019-02-26T18:25:29.214Z,65.78
2019-02-26T18:28:36.868Z,65.76
2019-02-26T18:31:43.847Z,65.74
2019-02-26T18:34:50.755Z,67.99
2019-02-26T18:37:58.152Z,66.55
2019-02-26T18:41:05.114Z,64.93
2019-02-26T18:44:12.342Z,65.90
2019-02-26T18:47:20.581Z,65.92
2019-02-26T18:50:28.634Z,69.15
2019-02-26T18:53:36.215Z,68.92
2019-02-26T18:56:43.175Z,67.29
2019-02-26T18:59:53.624Z,66.52
2019-02-26T19:03:02.075Z,68.52
2019-02-26T19:06:08.928Z,67.79
2019-02-26T19:09:18.627Z,68.45
2019-02-26T19:12:30.238Z,67.80
2019-02-26T19:15:37.225Z,68.83
2019-02-26T19:18:44.026Z,69.48
2019-02-26T19:21:54.072Z,68.88
2019-02-26T19:25:02.620Z,71.91
2019-02-26T19:28:11.871Z,69.62
2019-02-26T19:31:23.557Z,68.45
2019-02-26T19:34:33.327Z,68.79
2019-02-26T19:37:42.930Z,68.00
2019-02-26T19:40:50.901Z,69.75
2019-02-26T19:44:00.035Z,69.60
2019-02-26T19:47:06.502Z,69.08
2019-02-26T19:50:17.001Z,68.98
2019-02-26T19:53:24.810Z,69.19
2019-02-26T19:56:31.731Z,70.62
2019-02-26T19:59:38.688Z,72.69
2019-02-26T20:02:45.506Z,72.37
2019-02-26T20:05:52.413Z,72.28
2019-02-26T20:08:59.191Z,74.80
2019-02-26T20:12:06.082Z,72.97
2019-02-26T20:15:14.172Z,72.73
2019-02-26T20:18:23.713Z,75.73
2019-02-26T20:21:29.544Z,74.43
2019-02-26T20:24:36.391Z,72.63
2019-02-26T20:27:43.506Z,73.27
2019-02-26T20:30:50.460Z,75.51
2019-02-26T20:33:58.469Z,74.30
2019-02-26T20:37:05.375Z,72.70
2019-02-26T20:40:16.397Z,73.63
2019-02-26T20:43:25.332Z,73.82
2019-02-26T20:46:35.459Z,73.40
2019-02-26T20:49:43.641Z,72.16
2019-02-26T20:52:53.314Z,72.31
2019-02-26T20:56:01.195Z,73.33
2019-02-26T20:59:11.026Z,71.83
2019-02-26T21:02:19.134Z,70.04
2019-02-26T21:05:27.103Z,69.60
2019-02-26T21:08:35.749Z,70.17
2019-02-26T21:11:43.552Z,70.87
2019-02-26T21:14:51.210Z,71.81
2019-02-26T21:17:59.060Z,73.23
2019-02-26T21:21:07.077Z,71.85
2019-02-26T21:24:15.103Z,71.41
2019-02-26T21:27:23.693Z,70.86
2019-02-26T21:30:31.985Z,71.72
2019-02-26T21:33:39.865Z,71.26
2019-02-26T21:36:48.095Z,70.95
2019-02-26T21:39:56.284Z,69.70
2019-02-26T21:43:03.686Z,69.71
2019-02-26T21:46:13.043Z,69.55
2019-02-26T21:49:21.873Z,69.70
2019-02-26T21:52:30.108Z,69.35
2019-02-26T21:55:44.363Z,69.41
2019-02-26T21:58:48.639Z,70.27
2019-02-26T22:01:58.111Z,69.70
2019-02-26T22:05:08.101Z,68.92
2019-02-26T22:08:16.362Z,69.32
2019-02-26T22:11:24.136Z,69.16
2019-02-26T22:14:34.037Z,68.50
2019-02-26T22:17:43.753Z,68.13
2019-02-26T22:20:53.516Z,69.02
2019-02-26T22:24:01.521Z,69.48
2019-02-26T22:27:09.456Z,69.28
2019-02-26T22:30:21.388Z,69.54
2019-02-26T22:33:28.986Z,68.65
2019-02-26T22:36:37.545Z,69.18
2019-02-26T22:39:44.647Z,70.04
2019-02-26T22:42:51.559Z,69.06
2019-02-26T22:46:00.766Z,69.45
2019-02-26T22:49:07.937Z,69.35
2019-02-26T22:52:14.869Z,70.96
2019-02-26T22:55:21.769Z,70.62
2019-02-26T22:58:28.840Z,69.32
2019-02-26T23:01:46.917Z,69.83
2019-02-26T23:04:55.581Z,70.14
2019-02-26T23:08:02.812Z,70.10
2019-02-26T23:11:12.809Z,69.96
2019-02-26T23:14:20.888Z,70.32
2019-02-26T23:17:28.959Z,70.06
2019-02-26T23:20:36.179Z,70.68
2019-02-26T23:23:43.057Z,70.61
2019-02-26T23:26:50.060Z,70.65
2019-02-26T23:29:58.846Z,71.03
2019-02-26T23:33:07.921Z,71.86
2019-02-26T23:36:17.439Z,72.11
2019-02-26T23:39:24.594Z,71.52
2019-02-26T23:42:33.521Z,71.11
2019-02-26T23:45:40.399Z,71.80
2019-02-26T23:48:47.220Z,71.97
2019-02-26T23:51:55.487Z,72.98
2019-02-26T23:55:02.439Z,73.10
2019-02-26T23:58:11.349Z,73.54
